Time;durP1;ratioP1;P1;durP2;ratioP2;P2;SDS_P1;SDS_P2;PMS_P1;PMS_P2;Temp;Humidity;BMP_temperature;BMP_pressure;BME280_temperature;BME280_humidity;BME280_pressure;Samples;Min_cycle;Max_cycle;Signal;HPM_P1;HPM_P2
2021/05/15 00:00:32;;;;;;;2.53;0.90;;;10.90;99.90;;;;;;5035280;28;20181;-77
2021/05/15 00:02:59;;;;;;;0.83;0.57;;;10.90;99.90;;;;;;5034517;28;20185;-80
2021/05/15 00:05:25;;;;;;;0.70;0.70;;;10.90;99.90;;;;;;5034257;28;20533;-77
2021/05/15 00:07:50;;;;;;;0.80;0.63;;;10.80;99.90;;;;;;5034401;28;20463;-77
2021/05/15 00:10:16;;;;;;;0.80;0.70;;;10.80;99.90;;;;;;5017418;28;20421;-79
2021/05/15 00:12:42;;;;;;;6.00;0.60;;;10.80;99.90;;;;;;5034453;28;20188;-75
2021/05/15 00:15:10;;;;;;;1.07;0.80;;;10.80;99.90;;;;;;5034870;28;20486;-76
2021/05/15 00:17:36;;;;;;;1.17;0.87;;;10.70;99.90;;;;;;5034890;28;20244;-77
2021/05/15 00:20:02;;;;;;;2.40;0.60;;;10.70;99.90;;;;;;5034187;28;20413;-77
2021/05/15 00:22:28;;;;;;;0.80;0.80;;;10.70;99.90;;;;;;5035078;28;20195;-77
2021/05/15 00:24:53;;;;;;;1.97;0.60;;;10.70;99.90;;;;;;5017461;28;20435;-77
2021/05/15 00:27:19;;;;;;;1.27;0.80;;;10.70;99.90;;;;;;5035350;28;20188;-78
2021/05/15 00:29:44;;;;;;;1.53;0.50;;;10.60;99.90;;;;;;5035419;28;20205;-77
2021/05/15 00:32:10;;;;;;;5.30;0.60;;;10.60;99.90;;;;;;5035834;28;20189;-77
2021/05/15 00:34:35;;;;;;;2.30;1.17;;;10.60;99.90;;;;;;5017454;28;20222;-79
2021/05/15 00:37:01;;;;;;;0.97;0.60;;;10.60;99.90;;;;;;5035247;28;20280;-76
2021/05/15 00:39:26;;;;;;;1.57;0.70;;;10.60;99.90;;;;;;5035387;28;20687;-77
2021/05/15 00:41:52;;;;;;;0.80;0.73;;;10.60;99.90;;;;;;5035217;28;20552;-77
2021/05/15 00:44:29;;;;;;;0.80;0.80;;;10.50;99.90;;;;;;5035081;28;20270;-76
2021/05/15 00:46:55;;;;;;;0.70;0.63;;;10.50;99.90;;;;;;5034963;28;20669;-77
2021/05/15 00:49:21;;;;;;;1.17;0.80;;;10.40;99.90;;;;;;5035169;28;20420;-77
2021/05/15 00:51:46;;;;;;;0.60;0.60;;;10.40;99.90;;;;;;5034772;28;20929;-80
2021/05/15 00:54:12;;;;;;;1.07;0.60;;;10.40;99.90;;;;;;5017023;28;20645;-77
2021/05/15 00:56:39;;;;;;;0.80;0.80;;;10.30;99.90;;;;;;5034818;28;20235;-77
2021/05/15 00:59:05;;;;;;;3.30;0.70;;;10.30;99.90;;;;;;5035863;28;20421;-77
2021/05/15 01:01:31;;;;;;;2.20;0.60;;;10.30;99.90;;;;;;5018003;28;20424;-76
2021/05/15 01:03:57;;;;;;;2.30;0.60;;;10.20;99.90;;;;;;5035190;28;20173;-77
2021/05/15 01:06:22;;;;;;;0.93;0.80;;;10.20;99.90;;;;;;5017435;28;20412;-78
2021/05/15 01:08:48;;;;;;;1.77;0.70;;;10.10;99.90;;;;;;5035034;28;20185;-78
2021/05/15 01:11:18;;;;;;;0.93;0.50;;;10.10;99.90;;;;;;5035154;28;20427;-80
2021/05/15 01:14:00;;;;;;;0.50;0.50;;;10.10;99.90;;;;;;5017059;28;20181;-77
2021/05/15 01:16:26;;;;;;;0.70;0.60;;;10.10;99.90;;;;;;5035103;28;20428;-79
2021/05/15 01:18:53;;;;;;;2.13;0.80;;;10.10;99.90;;;;;;5034845;28;20425;-77
2021/05/15 01:21:19;;;;;;;0.80;0.80;;;10.00;99.90;;;;;;5035276;28;20173;-78
2021/05/15 01:23:44;;;;;;;1.27;0.70;;;10.00;99.90;;;;;;5017108;28;20430;-77
2021/05/15 01:26:18;;;;;;;2.10;0.70;;;10.00;99.90;;;;;;5034757;28;20449;-77
2021/05/15 01:28:45;;;;;;;0.60;0.60;;;10.10;99.90;;;;;;5034785;28;20181;-77
2021/05/15 01:31:11;;;;;;;1.17;0.67;;;10.10;99.90;;;;;;5034092;28;20443;-76
2021/05/15 01:33:37;;;;;;;0.93;0.83;;;10.10;99.90;;;;;;5034562;28;20493;-79
2021/05/15 01:36:04;;;;;;;0.90;0.60;;;10.20;99.90;;;;;;5034978;28;20446;-77
2021/05/15 01:38:29;;;;;;;0.60;0.60;;;10.20;99.90;;;;;;5034515;28;20692;-77
2021/05/15 01:41:01;;;;;;;1.63;0.77;;;10.30;99.90;;;;;;5034395;28;20471;-77
2021/05/15 01:43:26;;;;;;;1.50;0.67;;;10.20;99.90;;;;;;5033388;28;20192;-77
2021/05/15 01:45:52;;;;;;;1.00;0.90;;;10.30;99.90;;;;;;5032393;28;20451;-80
2021/05/15 01:48:18;;;;;;;0.77;0.77;;;10.30;99.90;;;;;;5034692;28;20679;-77
2021/05/15 01:50:56;;;;;;;0.53;0.53;;;10.30;99.90;;;;;;5034292;28;20188;-76
2021/05/15 01:53:25;;;;;;;0.50;0.50;;;10.30;99.90;;;;;;5034809;28;20418;-80
2021/05/15 01:55:53;;;;;;;1.27;0.87;;;10.30;99.90;;;;;;5034076;28;20450;-76
2021/05/15 01:58:18;;;;;;;5.90;0.70;;;10.30;99.90;;;;;;5034701;28;20485;-80
2021/05/15 02:00:44;;;;;;;1.50;0.63;;;10.20;99.90;;;;;;5034896;28;20414;-76
2021/05/15 02:03:10;;;;;;;3.50;0.60;;;10.20;99.90;;;;;;5034559;28;20204;-77
2021/05/15 02:05:35;;;;;;;5.90;1.10;;;10.10;99.90;;;;;;5016636;28;20438;-77
2021/05/15 02:08:01;;;;;;;0.70;0.70;;;10.10;99.90;;;;;;5034673;28;20184;-77
2021/05/15 02:10:27;;;;;;;0.57;0.50;;;10.10;99.90;;;;;;5016479;28;20222;-78
2021/05/15 02:12:52;;;;;;;1.00;0.70;;;10.10;99.90;;;;;;5034450;28;20192;-77
2021/05/15 02:15:18;;;;;;;1.20;0.83;;;10.00;99.90;;;;;;5034394;28;20210;-77
2021/05/15 02:17:43;;;;;;;0.80;0.80;;;10.00;99.90;;;;;;5034499;28;20608;-80
2021/05/15 02:20:09;;;;;;;0.70;0.57;;;10.00;99.90;;;;;;5034365;28;20215;-77
2021/05/15 02:22:35;;;;;;;1.27;0.77;;;9.90;99.90;;;;;;5034504;28;20180;-74
2021/05/15 02:25:00;;;;;;;1.80;0.60;;;9.90;99.90;;;;;;5034009;28;20443;-77
2021/05/15 02:27:26;;;;;;;0.93;0.70;;;9.80;99.90;;;;;;5017042;28;20182;-78
2021/05/15 02:29:51;;;;;;;1.40;0.73;;;9.70;99.90;;;;;;5016662;28;20184;-76
2021/05/15 02:32:17;;;;;;;0.67;0.67;;;9.80;99.90;;;;;;5034575;28;20180;-76
2021/05/15 02:34:42;;;;;;;2.40;1.00;;;9.70;99.90;;;;;;5033614;28;20324;-79
2021/05/15 02:37:08;;;;;;;5.80;0.87;;;9.70;99.90;;;;;;5034202;28;20207;-77
2021/05/15 02:39:34;;;;;;;1.40;0.70;;;9.70;99.90;;;;;;5033862;28;20177;-77
2021/05/15 02:42:00;;;;;;;0.63;0.63;;;9.80;99.90;;;;;;5034586;28;20172;-76
2021/05/15 02:44:25;;;;;;;0.80;0.60;;;9.80;99.90;;;;;;5037355;28;20996;-77
2021/05/15 02:46:51;;;;;;;5.23;1.00;;;9.80;99.90;;;;;;5019667;28;20194;-77
2021/05/15 02:49:16;;;;;;;1.30;0.83;;;9.80;99.90;;;;;;5038049;28;20186;-77
2021/05/15 02:51:42;;;;;;;1.10;0.70;;;9.80;99.90;;;;;;5037598;28;20196;-77
2021/05/15 02:54:07;;;;;;;1.03;0.77;;;9.80;99.90;;;;;;5036940;28;20210;-77
2021/05/15 02:56:34;;;;;;;1.00;0.70;;;9.80;99.90;;;;;;5037194;28;20263;-77
2021/05/15 02:59:00;;;;;;;2.97;0.83;;;9.80;99.90;;;;;;5037904;28;20174;-79
2021/05/15 03:01:26;;;;;;;0.70;0.67;;;9.80;99.90;;;;;;5037734;28;20472;-77
2021/05/15 03:03:51;;;;;;;1.33;1.07;;;9.70;99.90;;;;;;5037090;28;20181;-77
2021/05/15 03:06:17;;;;;;;0.70;0.70;;;9.70;99.90;;;;;;5019272;28;20177;-77
2021/05/15 03:08:42;;;;;;;1.40;0.87;;;9.60;99.90;;;;;;5037003;28;20184;-77
2021/05/15 03:11:08;;;;;;;1.50;0.50;;;9.60;99.90;;;;;;5019937;28;20268;-77
2021/05/15 03:13:33;;;;;;;2.40;0.80;;;9.60;99.90;;;;;;5036974;28;20250;-77
2021/05/15 03:15:59;;;;;;;0.70;0.70;;;9.60;99.90;;;;;;5036932;28;20223;-78
2021/05/15 03:18:24;;;;;;;0.60;0.60;;;9.60;99.90;;;;;;5037543;28;20267;-77
2021/05/15 03:20:50;;;;;;;2.60;1.00;;;9.60;99.90;;;;;;5019514;28;20234;-77
2021/05/15 03:23:15;;;;;;;0.80;0.70;;;9.60;99.90;;;;;;5018106;28;20521;-80
2021/05/15 03:25:41;;;;;;;1.00;0.70;;;9.50;99.90;;;;;;5037162;28;20197;-77
2021/05/15 03:28:06;;;;;;;0.70;0.70;;;9.60;99.90;;;;;;5037367;28;20230;-77
2021/05/15 03:30:32;;;;;;;2.47;0.80;;;9.60;99.90;;;;;;5037034;28;20235;-77
2021/05/15 03:32:57;;;;;;;0.70;0.50;;;9.50;99.90;;;;;;5036672;28;20193;-77
2021/05/15 03:35:24;;;;;;;0.90;0.70;;;9.50;99.90;;;;;;5036447;28;20347;-78
2021/05/15 03:37:49;;;;;;;1.23;0.83;;;9.40;99.90;;;;;;5036569;28;20265;-76
2021/05/15 03:40:15;;;;;;;0.60;0.60;;;9.40;99.90;;;;;;5037178;28;20499;-77
2021/05/15 03:42:40;;;;;;;1.00;0.90;;;9.30;99.90;;;;;;5034178;28;20234;-76
2021/05/15 03:45:08;;;;;;;0.80;0.80;;;9.30;99.90;;;;;;5034788;28;20317;-77
2021/05/15 03:47:33;;;;;;;2.43;0.97;;;9.30;99.90;;;;;;5036535;28;20184;-77
2021/05/15 03:49:59;;;;;;;0.70;0.70;;;9.20;99.90;;;;;;5036229;28;20434;-78
2021/05/15 03:52:24;;;;;;;1.03;0.70;;;9.20;99.90;;;;;;5036465;28;20718;-77
2021/05/15 03:54:50;;;;;;;0.80;0.70;;;9.10;99.90;;;;;;5035546;28;20215;-77
2021/05/15 03:57:15;;;;;;;1.17;0.90;;;9.10;99.90;;;;;;5036196;28;20236;-77
2021/05/15 03:59:41;;;;;;;0.90;0.70;;;9.20;99.90;;;;;;5036152;28;20203;-76
2021/05/15 04:02:06;;;;;;;1.17;0.60;;;9.10;99.90;;;;;;5018359;28;20183;-76
2021/05/15 04:04:34;;;;;;;0.80;0.80;;;9.20;99.90;;;;;;5036001;28;20568;-77
2021/05/15 04:06:59;;;;;;;0.70;0.70;;;9.30;99.90;;;;;;5018205;28;20184;-79
2021/05/15 04:09:25;;;;;;;1.27;0.70;;;9.30;99.90;;;;;;5018353;28;20431;-77
2021/05/15 04:11:51;;;;;;;1.03;0.90;;;9.40;99.90;;;;;;5035466;28;20204;-79
2021/05/15 04:19:11;;;;;;;0.87;0.80;;;9.80;99.90;;;;;;5035299;28;20177;-77
2021/05/15 04:21:36;;;;;;;0.93;0.93;;;9.90;99.90;;;;;;5018306;28;20423;-77
2021/05/15 04:24:02;;;;;;;1.40;0.70;;;9.90;99.90;;;;;;5035452;28;20263;-77
2021/05/15 04:26:28;;;;;;;1.80;0.83;;;9.90;99.90;;;;;;5035697;28;20175;-77
2021/05/15 04:28:53;;;;;;;0.70;0.70;;;9.90;99.90;;;;;;5035667;28;20167;-76
2021/05/15 04:31:19;;;;;;;1.17;1.00;;;10.00;99.90;;;;;;5035101;28;20204;-77
2021/05/15 04:33:44;;;;;;;0.70;0.63;;;10.00;99.90;;;;;;5035271;28;20199;-77
2021/05/15 04:36:10;;;;;;;1.90;0.70;;;10.10;99.90;;;;;;5017652;28;20205;-76
2021/05/15 04:38:35;;;;;;;0.73;0.70;;;10.10;99.90;;;;;;5035630;28;20209;-77
2021/05/15 04:41:01;;;;;;;7.93;0.80;;;10.10;99.90;;;;;;5035807;28;20633;-77
2021/05/15 04:43:26;;;;;;;0.90;0.60;;;10.10;99.90;;;;;;5035407;28;20178;-77
2021/05/15 04:45:53;;;;;;;1.90;0.60;;;10.20;99.90;;;;;;5035513;28;20197;-77
2021/05/15 04:48:19;;;;;;;0.90;0.70;;;10.30;99.90;;;;;;5017247;28;20209;-77
2021/05/15 04:50:45;;;;;;;0.80;0.80;;;10.30;99.90;;;;;;5033335;28;20470;-78
2021/05/15 04:53:10;;;;;;;3.27;0.67;;;10.40;99.90;;;;;;5033132;28;20712;-78
2021/05/15 04:55:36;;;;;;;1.20;0.70;;;10.40;99.90;;;;;;5032873;28;20280;-76
2021/05/15 04:58:01;;;;;;;1.10;0.60;;;10.50;99.90;;;;;;5032474;28;20205;-79
2021/05/15 05:00:28;;;;;;;0.60;0.60;;;10.40;99.90;;;;;;5033344;28;20234;-77
2021/05/15 05:02:54;;;;;;;0.90;0.70;;;10.40;99.90;;;;;;5015775;28;20177;-78
2021/05/15 05:05:20;;;;;;;1.03;0.80;;;10.30;99.90;;;;;;5033417;28;20810;-77
2021/05/15 05:07:45;;;;;;;2.00;0.50;;;10.40;99.90;;;;;;5033786;28;20614;-77
2021/05/15 05:10:11;;;;;;;0.60;0.50;;;10.60;99.90;;;;;;5033805;28;20256;-77
2021/05/15 05:12:37;;;;;;;0.90;0.90;;;10.70;99.90;;;;;;5034182;28;20181;-76
2021/05/15 05:15:04;;;;;;;0.80;0.60;;;11.00;99.90;;;;;;5034129;28;20437;-77
2021/05/15 05:17:30;;;;;;;0.90;0.67;;;11.40;99.90;;;;;;5034081;28;20252;-77
2021/05/15 05:19:55;;;;;;;1.07;0.70;;;11.80;99.90;;;;;;5034528;28;20483;-77
2021/05/15 05:22:21;;;;;;;3.23;0.60;;;12.20;99.90;;;;;;5034447;28;20273;-77
2021/05/15 05:24:46;;;;;;;0.60;0.60;;;12.50;99.90;;;;;;5016631;28;20222;-77
2021/05/15 05:27:19;;;;;;;0.77;0.77;;;12.70;99.90;;;;;;5033865;28;20174;-77
2021/05/15 05:29:44;;;;;;;1.93;0.77;;;12.50;99.90;;;;;;5034229;28;20235;-77
2021/05/15 05:32:10;;;;;;;2.40;1.03;;;12.30;99.90;;;;;;5015267;28;20900;-77
2021/05/15 05:34:37;;;;;;;0.70;0.60;;;12.20;99.90;;;;;;5032759;28;20671;-79
2021/05/15 05:37:03;;;;;;;0.70;0.67;;;12.20;99.90;;;;;;5033058;28;20289;-77
2021/05/15 05:39:28;;;;;;;0.80;0.60;;;12.10;99.90;;;;;;5033000;28;20409;-76
2021/05/15 05:41:54;;;;;;;0.60;0.60;;;12.30;99.90;;;;;;5030813;28;20439;-79
2021/05/15 05:44:19;;;;;;;1.60;0.90;;;12.40;99.90;;;;;;5032831;28;20279;-77
2021/05/15 05:46:45;;;;;;;2.10;0.63;;;12.80;99.90;;;;;;5033399;28;20236;-77
2021/05/15 05:49:10;;;;;;;0.70;0.67;;;13.10;99.90;;;;;;5033194;28;20174;-78
2021/05/15 05:51:36;;;;;;;2.30;0.60;;;13.50;99.90;;;;;;5033714;28;20174;-77
2021/05/15 05:54:02;;;;;;;1.33;0.60;;;13.70;99.90;;;;;;5032747;28;20568;-77
2021/05/15 05:56:31;;;;;;;0.83;0.77;;;14.10;99.90;;;;;;5015726;28;20271;-77
2021/05/15 05:58:57;;;;;;;0.63;0.60;;;14.50;99.90;;;;;;5032816;28;20460;-78
2021/05/15 06:01:22;;;;;;;1.80;0.70;;;14.70;99.90;;;;;;5033046;28;20412;-73
2021/05/15 06:03:48;;;;;;;0.60;0.60;;;14.90;99.90;;;;;;5031004;28;20162;-73
2021/05/15 06:06:14;;;;;;;2.00;0.50;;;15.00;99.90;;;;;;5013168;28;20194;-73
2021/05/15 06:08:39;;;;;;;1.20;0.90;;;15.10;99.90;;;;;;5031178;28;20170;-74
2021/05/15 06:11:06;;;;;;;0.80;0.80;;;15.20;99.90;;;;;;5030648;28;20187;-73
2021/05/15 06:13:31;;;;;;;2.07;0.80;;;15.20;99.90;;;;;;5030939;28;20166;-73
2021/05/15 06:15:57;;;;;;;0.70;0.50;;;15.20;99.90;;;;;;5030767;28;20494;-74
2021/05/15 06:18:22;;;;;;;1.33;0.60;;;15.40;99.90;;;;;;5033232;28;20209;-73
2021/05/15 06:20:49;;;;;;;0.50;0.50;;;15.60;99.90;;;;;;5034941;28;20576;-73
2021/05/15 06:23:15;;;;;;;1.13;0.50;;;15.50;99.90;;;;;;5034709;28;20667;-73
2021/05/15 06:25:40;;;;;;;2.93;0.60;;;15.90;99.90;;;;;;5034715;28;21000;-73
2021/05/15 06:28:06;;;;;;;1.20;0.93;;;16.20;99.90;;;;;;5034749;28;20447;-73
2021/05/15 06:30:32;;;;;;;1.60;0.60;;;16.60;99.90;;;;;;5034769;28;20177;-74
2021/05/15 06:32:57;;;;;;;1.63;0.50;;;17.00;99.90;;;;;;5034443;28;20170;-73
2021/05/15 06:35:23;;;;;;;0.80;0.50;;;17.20;99.90;;;;;;5034553;28;20284;-73
2021/05/15 06:37:49;;;;;;;0.50;0.40;;;17.00;99.90;;;;;;5034460;28;20236;-74
2021/05/15 06:40:14;;;;;;;1.70;0.90;;;16.90;99.90;;;;;;5034630;28;20271;-74
2021/05/15 06:42:41;;;;;;;1.67;0.53;;;17.30;99.90;;;;;;5034415;28;20182;-73
2021/05/15 06:45:08;;;;;;;1.57;1.47;;;17.40;99.90;;;;;;5034345;28;20209;-74
2021/05/15 06:47:34;;;;;;;0.50;0.50;;;17.90;99.90;;;;;;5034218;28;20925;-74
2021/05/15 06:50:00;;;;;;;0.70;0.40;;;18.10;99.90;;;;;;5034395;28;20944;-74
2021/05/15 06:52:26;;;;;;;2.73;0.67;;;18.00;99.90;;;;;;5034481;28;20416;-74
2021/05/15 06:54:51;;;;;;;2.17;0.73;;;17.80;99.90;;;;;;5033967;28;20190;-74
2021/05/15 06:57:18;;;;;;;0.80;0.40;;;17.90;99.90;;;;;;5034199;28;20539;-74
2021/05/15 06:59:43;;;;;;;1.07;0.50;;;18.20;99.90;;;;;;5034959;28;20656;-74
2021/05/15 07:02:09;;;;;;;1.47;0.40;;;18.10;99.90;;;;;;5034421;28;20404;-74
2021/05/15 07:04:34;;;;;;;1.97;0.60;;;17.80;99.90;;;;;;5033995;28;20277;-74
2021/05/15 07:07:00;;;;;;;0.50;0.43;;;17.40;99.90;;;;;;5033873;28;20173;-74
2021/05/15 07:09:25;;;;;;;0.50;0.50;;;16.70;99.90;;;;;;5034443;28;20178;-74
2021/05/15 07:11:51;;;;;;;0.80;0.50;;;16.30;99.90;;;;;;5033956;28;20173;-74
2021/05/15 07:14:17;;;;;;;0.70;0.70;;;15.90;99.90;;;;;;5033665;28;20194;-74
2021/05/15 07:16:43;;;;;;;0.57;0.57;;;15.70;99.90;;;;;;5033845;28;20240;-74
2021/05/15 07:19:08;;;;;;;1.60;0.60;;;15.60;99.90;;;;;;5033682;28;20409;-74
2021/05/15 07:21:34;;;;;;;0.80;0.70;;;15.20;99.90;;;;;;5033911;28;20166;-74
2021/05/15 07:23:59;;;;;;;2.27;0.70;;;15.20;99.90;;;;;;5033431;28;20174;-74
2021/05/15 07:26:25;;;;;;;0.70;0.60;;;15.10;99.90;;;;;;5033744;28;20256;-74
2021/05/15 07:28:50;;;;;;;0.53;0.50;;;15.00;99.90;;;;;;5032565;28;20187;-74
2021/05/15 07:31:16;;;;;;;1.90;1.07;;;15.10;99.90;;;;;;5015780;28;20251;-74
2021/05/15 07:33:42;;;;;;;2.73;0.50;;;15.30;99.90;;;;;;5033295;28;20667;-74
2021/05/15 07:36:07;;;;;;;1.47;0.70;;;15.20;99.90;;;;;;5033468;28;20241;-75
2021/05/15 07:38:34;;;;;;;0.90;0.50;;;15.00;99.90;;;;;;5033691;28;20263;-74
2021/05/15 07:41:00;;;;;;;0.60;0.53;;;14.80;99.90;;;;;;5033478;28;20166;-74
2021/05/15 07:43:26;;;;;;;2.40;0.67;;;14.70;99.90;;;;;;5033251;28;20404;-74
2021/05/15 07:45:53;;;;;;;0.70;0.70;;;14.70;99.90;;;;;;5015694;28;20218;-74
2021/05/15 07:48:28;;;;;;;0.60;0.60;;;14.80;99.90;;;;;;5033255;28;20417;-74
2021/05/15 07:50:57;;;;;;;2.20;1.20;;;14.90;99.90;;;;;;5033380;28;20469;-74
2021/05/15 07:53:23;;;;;;;1.57;0.97;;;15.10;99.90;;;;;;5015321;28;20845;-74
2021/05/15 07:55:49;;;;;;;4.47;0.90;;;15.40;99.90;;;;;;5033124;28;20428;-74
2021/05/15 07:58:16;;;;;;;2.70;0.90;;;15.50;99.90;;;;;;5033019;28;20205;-74
2021/05/15 08:00:41;;;;;;;3.10;0.73;;;15.40;99.90;;;;;;5033123;28;20796;-75
2021/05/15 08:03:07;;;;;;;1.27;0.60;;;15.50;99.90;;;;;;5032819;28;20414;-74
2021/05/15 08:05:33;;;;;;;0.63;0.63;;;15.70;99.90;;;;;;5033071;28;20205;-74
2021/05/15 08:08:00;;;;;;;1.53;1.03;;;15.80;99.90;;;;;;5032823;28;20186;-74
2021/05/15 08:10:25;;;;;;;0.83;0.60;;;15.70;99.90;;;;;;5033045;28;20181;-74
2021/05/15 08:12:51;;;;;;;1.40;0.73;;;15.60;99.90;;;;;;5015041;28;20420;-74
2021/05/15 08:15:16;;;;;;;0.50;0.50;;;15.50;99.90;;;;;;5032639;28;20206;-74
2021/05/15 08:17:42;;;;;;;0.80;0.50;;;15.30;99.90;;;;;;5032896;28;20236;-75
2021/05/15 08:20:08;;;;;;;0.77;0.60;;;15.10;99.90;;;;;;5032689;28;20173;-74
2021/05/15 08:22:34;;;;;;;1.80;0.60;;;14.80;99.90;;;;;;5032653;28;20264;-74
2021/05/15 08:24:59;;;;;;;1.00;0.70;;;14.80;99.90;;;;;;5032297;28;20523;-74
2021/05/15 08:27:25;;;;;;;1.97;0.90;;;14.80;99.90;;;;;;5032715;28;20235;-74
2021/05/15 08:29:54;;;;;;;1.37;0.70;;;14.70;99.90;;;;;;5032624;28;20210;-75
2021/05/15 08:32:20;;;;;;;1.17;0.60;;;14.70;99.90;;;;;;5032435;28;20178;-74
2021/05/15 08:34:46;;;;;;;2.93;0.80;;;14.70;99.90;;;;;;5032138;28;20830;-74
2021/05/15 08:37:11;;;;;;;2.50;0.70;;;14.70;99.90;;;;;;4998155;28;20452;-74
2021/05/15 08:39:37;;;;;;;3.47;0.80;;;14.70;99.90;;;;;;5032343;28;20170;-74
2021/05/15 08:42:03;;;;;;;1.70;0.70;;;14.70;99.90;;;;;;5031793;28;20174;-75
2021/05/15 08:44:29;;;;;;;1.77;0.70;;;14.90;99.90;;;;;;5014263;28;20694;-74
2021/05/15 08:46:56;;;;;;;1.40;0.70;;;14.90;99.90;;;;;;5032033;28;20405;-74
2021/05/15 08:49:23;;;;;;;2.73;0.70;;;15.10;99.90;;;;;;5014434;28;20182;-74
2021/05/15 08:51:54;;;;;;;1.27;0.70;;;15.30;99.90;;;;;;5032249;28;20405;-74
2021/05/15 08:54:21;;;;;;;4.77;0.80;;;15.40;99.90;;;;;;5031785;28;20476;-74
2021/05/15 08:56:49;;;;;;;0.90;0.60;;;15.40;99.90;;;;;;5032066;28;20511;-74
2021/05/15 08:59:15;;;;;;;0.77;0.60;;;15.60;99.90;;;;;;5032023;28;20549;-74
2021/05/15 09:01:43;;;;;;;0.70;0.60;;;15.60;99.90;;;;;;5032090;28;20994;-74
2021/05/15 09:04:08;;;;;;;0.70;0.60;;;15.60;99.90;;;;;;5031747;28;20636;-75
2021/05/15 09:06:38;;;;;;;0.77;0.70;;;15.60;99.90;;;;;;5031933;28;20416;-74
2021/05/15 09:09:04;;;;;;;0.80;0.70;;;15.40;99.90;;;;;;5031915;28;20180;-74
2021/05/15 09:11:30;;;;;;;0.70;0.70;;;15.20;99.90;;;;;;5032002;28;20412;-74
2021/05/15 09:13:55;;;;;;;0.80;0.77;;;15.20;99.90;;;;;;5013842;28;20460;-74
2021/05/15 09:16:21;;;;;;;4.40;0.90;;;15.30;99.90;;;;;;5031857;28;20262;-75
2021/05/15 09:18:47;;;;;;;0.60;0.60;;;15.40;99.90;;;;;;5031981;28;20202;-74
2021/05/15 09:21:17;;;;;;;0.60;0.50;;;15.40;99.90;;;;;;5014310;28;21077;-74
2021/05/15 09:23:45;;;;;;;0.70;0.70;;;15.60;99.90;;;;;;5031903;28;20463;-74
2021/05/15 09:26:24;;;;;;;7.10;0.80;;;15.70;99.90;;;;;;5031412;28;20436;-74
2021/05/15 09:28:57;;;;;;;0.93;0.60;;;15.90;99.90;;;;;;5031686;28;20420;-74
2021/05/15 09:31:27;;;;;;;1.10;0.67;;;16.10;99.90;;;;;;5031778;28;20779;-74
2021/05/15 09:34:03;;;;;;;1.03;0.70;;;16.10;99.90;;;;;;5031208;28;20440;-73
2021/05/15 09:36:39;;;;;;;0.50;0.50;;;16.50;99.90;;;;;;5020569;28;20526;-74
2021/05/15 09:39:18;;;;;;;1.80;0.50;;;16.90;99.90;;;;;;5035816;28;20467;-74
2021/05/15 09:41:52;;;;;;;0.77;0.50;;;17.50;99.90;;;;;;5031502;28;20507;-74
2021/05/15 09:44:20;;;;;;;0.70;0.50;;;17.70;99.90;;;;;;5013427;28;20444;-75
2021/05/15 09:46:47;;;;;;;2.03;0.50;;;17.90;99.90;;;;;;5013634;28;20420;-75
2021/05/15 09:49:14;;;;;;;1.43;0.57;;;18.10;99.90;;;;;;5031252;28;20421;-75
2021/05/15 09:51:49;;;;;;;1.53;0.97;;;17.90;99.90;;;;;;5030891;28;20961;-75
2021/05/15 09:54:22;;;;;;;0.53;0.53;;;17.80;99.90;;;;;;5030855;28;20758;-75
2021/05/15 09:57:06;;;;;;;1.07;0.80;;;17.60;99.90;;;;;;5031257;28;20495;-74
2021/05/15 09:59:34;;;;;;;1.90;0.60;;;17.20;99.90;;;;;;5031171;28;20924;-75
2021/05/15 10:02:01;;;;;;;2.00;0.60;;;17.40;99.90;;;;;;5031041;28;20408;-75
2021/05/15 10:04:28;;;;;;;0.80;0.43;;;17.90;99.90;;;;;;5013359;28;20468;-75
2021/05/15 10:06:55;;;;;;;0.93;0.57;;;19.20;99.90;;;;;;5031264;28;20417;-75
2021/05/15 10:09:28;;;;;;;3.20;0.60;;;20.10;99.90;;;;;;5031145;28;20918;-74
2021/05/15 10:11:53;;;;;;;1.57;0.50;;;20.50;99.90;;;;;;5013484;28;20412;-75
2021/05/15 10:14:20;;;;;;;1.27;0.60;;;19.70;99.90;;;;;;5030818;28;20554;-75
2021/05/15 10:16:46;;;;;;;0.90;0.60;;;19.20;99.90;;;;;;5030962;28;20174;-75
2021/05/15 10:19:12;;;;;;;1.13;0.53;;;18.20;99.90;;;;;;5031008;28;20950;-75
2021/05/15 10:21:37;;;;;;;1.73;0.60;;;17.80;99.90;;;;;;5031211;28;20251;-75
2021/05/15 10:24:03;;;;;;;2.20;0.53;;;17.50;99.90;;;;;;5030839;28;20918;-74
2021/05/15 10:26:31;;;;;;;0.80;0.60;;;17.30;99.90;;;;;;5031019;28;20182;-75
2021/05/15 10:29:05;;;;;;;0.73;0.70;;;17.40;99.90;;;;;;5030954;28;20416;-75
2021/05/15 10:31:40;;;;;;;1.80;0.90;;;17.30;99.90;;;;;;5030950;28;20424;-75
2021/05/15 10:34:06;;;;;;;0.53;0.50;;;17.10;99.90;;;;;;5012753;28;20472;-74
2021/05/15 10:36:44;;;;;;;1.80;0.90;;;16.80;99.90;;;;;;5030899;28;20487;-75
2021/05/15 10:39:09;;;;;;;1.00;0.60;;;17.30;99.90;;;;;;5030931;28;20464;-74
2021/05/15 10:41:44;;;;;;;0.73;0.70;;;18.20;99.90;;;;;;5013472;28;20479;-75
2021/05/15 10:44:12;;;;;;;1.00;0.63;;;18.30;99.90;;;;;;5030987;28;20162;-75
2021/05/15 10:46:45;;;;;;;1.63;0.50;;;18.40;99.90;;;;;;5031749;28;20404;-75
2021/05/15 10:49:21;;;;;;;4.73;0.70;;;18.50;99.90;;;;;;5013536;28;20945;-75
2021/05/15 10:51:49;;;;;;;2.13;0.87;;;18.20;99.90;;;;;;5031007;28;20984;-75
2021/05/15 10:54:35;;;;;;;1.83;0.60;;;18.00;99.90;;;;;;5030599;28;20498;-75
2021/05/15 10:57:08;;;;;;;4.70;0.83;;;17.80;99.90;;;;;;5030546;28;20964;-75
2021/05/15 10:59:35;;;;;;;5.43;0.87;;;17.60;99.90;;;;;;5030753;28;20976;-75
2021/05/15 11:02:02;;;;;;;1.60;0.70;;;17.40;99.90;;;;;;5030669;28;20411;-75
2021/05/15 11:04:30;;;;;;;2.50;0.70;;;17.50;99.90;;;;;;5032901;28;20428;-75
2021/05/15 11:07:00;;;;;;;1.70;0.80;;;17.40;99.90;;;;;;5033926;28;20417;-75
2021/05/15 11:09:27;;;;;;;2.70;0.80;;;17.30;99.90;;;;;;5034917;28;20408;-74
2021/05/15 11:11:53;;;;;;;5.40;1.00;;;17.30;99.90;;;;;;5034248;28;20419;-74
2021/05/15 11:14:28;;;;;;;1.77;0.90;;;17.10;99.90;;;;;;5016217;28;20917;-74
2021/05/15 11:17:11;;;;;;;2.00;1.03;;;17.00;99.90;;;;;;5033898;28;20409;-74
2021/05/15 11:19:53;;;;;;;2.47;0.80;;;16.90;99.90;;;;;;5034236;28;20413;-74
2021/05/15 11:22:20;;;;;;;2.27;0.90;;;16.90;99.90;;;;;;5033904;28;20409;-74
2021/05/15 11:24:56;;;;;;;1.00;0.80;;;16.90;99.90;;;;;;5033701;28;20428;-74
2021/05/15 11:27:23;;;;;;;1.83;0.80;;;16.80;99.90;;;;;;5033752;28;20416;-73
2021/05/15 11:30:12;;;;;;;2.77;0.80;;;16.80;99.90;;;;;;5033954;28;20429;-74
2021/05/15 11:32:38;;;;;;;1.00;0.63;;;16.70;99.90;;;;;;5015975;28;20945;-74
2021/05/15 11:35:08;;;;;;;4.63;0.80;;;16.70;99.90;;;;;;5034070;28;20491;-74
2021/05/15 11:37:33;;;;;;;3.00;1.10;;;16.70;99.90;;;;;;5033686;28;20468;-74
2021/05/15 11:39:59;;;;;;;0.63;0.53;;;16.80;99.90;;;;;;5015829;28;20912;-74
2021/05/15 11:42:30;;;;;;;2.03;0.70;;;17.00;99.90;;;;;;5033732;28;20558;-75
2021/05/15 11:44:55;;;;;;;0.60;0.60;;;17.10;99.90;;;;;;5033245;28;20225;-74
2021/05/15 11:47:23;;;;;;;0.80;0.70;;;17.40;99.90;;;;;;5015708;28;20933;-74
2021/05/15 11:49:56;;;;;;;1.90;0.93;;;17.60;99.90;;;;;;5015804;28;20313;-74
2021/05/15 11:52:29;;;;;;;1.30;0.73;;;17.90;99.90;;;;;;5015807;28;20825;-74
2021/05/15 11:54:55;;;;;;;0.73;0.60;;;18.20;99.90;;;;;;5033108;28;20969;-74
2021/05/15 11:57:26;;;;;;;2.63;0.70;;;18.50;99.90;;;;;;5033088;28;20464;-73
2021/05/15 11:59:51;;;;;;;2.13;0.70;;;18.90;99.90;;;;;;5015520;28;20258;-74
2021/05/15 12:02:17;;;;;;;1.30;0.60;;;18.90;99.90;;;;;;5033073;28;20508;-74
2021/05/15 12:04:42;;;;;;;1.70;0.50;;;19.00;99.90;;;;;;5032928;28;20194;-72
2021/05/15 12:07:08;;;;;;;3.07;0.87;;;18.90;99.90;;;;;;5033046;28;20182;-74
2021/05/15 12:09:34;;;;;;;1.77;0.70;;;18.90;99.90;;;;;;5015561;28;20170;-75
2021/05/15 12:12:08;;;;;;;1.47;0.60;;;18.90;99.90;;;;;;5032825;28;20838;-75
2021/05/15 12:14:37;;;;;;;0.83;0.60;;;19.10;99.90;;;;;;5032582;28;20194;-75
2021/05/15 12:17:08;;;;;;;2.07;0.70;;;19.00;99.90;;;;;;5014601;28;20459;-74
2021/05/15 12:19:34;;;;;;;1.23;0.63;;;18.90;99.90;;;;;;5032954;28;20412;-74
2021/05/15 12:22:06;;;;;;;1.27;0.60;;;18.80;99.90;;;;;;5032742;28;20416;-74
2021/05/15 12:24:36;;;;;;;1.17;0.67;;;18.70;99.90;;;;;;5032687;28;20431;-74
2021/05/15 12:27:22;;;;;;;1.00;0.73;;;18.70;99.90;;;;;;5014933;28;20424;-74
2021/05/15 12:30:07;;;;;;;3.23;0.60;;;18.70;99.90;;;;;;5015219;28;20413;-74
2021/05/15 12:32:38;;;;;;;1.10;0.70;;;18.80;99.90;;;;;;5032668;28;20490;-75
2021/05/15 12:35:11;;;;;;;1.67;0.70;;;19.00;99.90;;;;;;5032169;28;20452;-75
2021/05/15 12:37:38;;;;;;;1.33;0.50;;;19.20;99.90;;;;;;5032456;28;20463;-74
2021/05/15 12:40:14;;;;;;;1.10;0.50;;;19.30;99.90;;;;;;5032482;28;20423;-74
2021/05/15 12:42:40;;;;;;;4.23;0.90;;;19.00;99.90;;;;;;5014885;28;20991;-74
2021/05/15 12:45:16;;;;;;;2.17;0.70;;;19.00;99.90;;;;;;5032075;28;20432;-75
2021/05/15 12:47:44;;;;;;;4.80;0.80;;;18.80;99.90;;;;;;5014471;28;20177;-75
2021/05/15 12:50:17;;;;;;;3.00;0.80;;;18.70;99.90;;;;;;5032204;28;20425;-74
2021/05/15 12:52:43;;;;;;;1.80;0.57;;;18.60;99.90;;;;;;5014309;28;20421;-73